Time;durP1;ratioP1;P1;durP2;ratioP2;P2;SDS_P1;SDS_P2;PMS_P1;PMS_P2;Temp;Humidity;BMP_temperature;BMP_pressure;BME280_temperature;BME280_humidity;BME280_pressure;Samples;Min_cycle;Max_cycle;Signal;HPM_P1;HPM_P2
2023/09/15 00:03:23;;;;;;;10.57;7.60;;;;;;;15.03;70.76;100767.59;30972341;28;97169;-70
2023/09/15 00:18:25;;;;;;;10.57;6.38;;;;;;;15.14;70.71;100772.50;30971430;28;97325;-70
2023/09/15 00:33:25;;;;;;;8.57;5.00;;;;;;;15.29;70.11;100779.72;30970535;28;97229;-73
2023/09/15 00:48:26;;;;;;;8.75;4.80;;;;;;;15.37;69.95;100784.97;30968618;28;97172;-74
2023/09/15 01:03:30;;;;;;;7.43;4.85;;;;;;;15.47;70.04;100796.25;30967309;28;97112;-71
2023/09/15 01:18:59;;;;;;;8.43;4.13;;;;;;;15.54;69.75;100802.56;30966405;28;97442;-69
2023/09/15 01:34:00;;;;;;;8.20;4.23;;;;;;;15.61;69.50;100804.47;30964355;28;96982;-73
2023/09/15 01:49:02;;;;;;;5.95;3.30;;;;;;;15.66;69.68;100802.06;30962784;28;97175;-73
2023/09/15 02:04:03;;;;;;;12.10;4.30;;;;;;;15.69;69.88;100807.03;30960816;28;97241;-71
2023/09/15 02:19:06;;;;;;;8.03;3.90;;;;;;;15.62;69.77;100806.16;30961138;28;96870;-66
2023/09/15 02:34:06;;;;;;;6.87;4.00;;;;;;;15.43;70.00;100810.25;30960513;28;96723;-72
2023/09/15 02:49:07;;;;;;;5.63;4.10;;;;;;;15.30;70.15;100810.91;30957025;28;99377;-73
2023/09/15 03:04:08;;;;;;;11.55;5.28;;;;;;;15.10;70.55;100814.13;30955710;28;96781;-69
2023/09/15 03:19:09;;;;;;;8.65;5.13;;;;;;;15.16;70.87;100816.09;30971587;28;96910;-72
2023/09/15 03:34:09;;;;;;;9.13;4.80;;;;;;;15.11;71.24;100826.56;30973766;28;96666;-69
2023/09/15 03:49:10;;;;;;;9.70;5.20;;;;;;;15.01;71.26;100832.19;30970467;28;96847;-73
2023/09/15 04:04:11;;;;;;;10.40;5.17;;;;;;;14.93;71.54;100840.31;30971926;28;96890;-68
2023/09/15 04:19:11;;;;;;;16.08;6.13;;;;;;;14.92;72.07;100853.94;30968042;28;96730;-64
2023/09/15 04:34:12;;;;;;;8.13;4.63;;;;;;;15.03;71.87;100848.94;30967397;28;97209;-68
2023/09/15 04:49:13;;;;;;;9.52;4.60;;;;;;;15.14;72.42;100850.31;30963452;28;97020;-70
2023/09/15 05:04:14;;;;;;;7.53;3.87;;;;;;;15.29;72.10;100854.88;30964176;28;97173;-70
2023/09/15 05:19:15;;;;;;;12.47;4.80;;;;;;;15.42;72.02;100857.75;30962927;28;96752;-72
2023/09/15 05:34:15;;;;;;;10.57;6.47;;;;;;;15.92;72.00;100881.34;30960687;28;97507;-72
2023/09/15 05:49:16;;;;;;;9.35;5.15;;;;;;;16.41;71.59;100880.63;30960624;28;97330;-72
2023/09/15 06:04:16;;;;;;;10.93;4.80;;;;;;;17.13;70.42;100878.75;30957577;28;96876;-74
2023/09/15 06:19:17;;;;;;;9.90;5.00;;;;;;;17.83;69.33;100888.69;30956598;28;96794;-72
2023/09/15 06:34:17;;;;;;;7.10;4.18;;;;;;;18.76;67.31;100896.16;30954952;28;96818;-70
2023/09/15 06:49:21;;;;;;;7.40;4.63;;;;;;;19.11;65.89;100896.81;30965960;28;96866;-72
2023/09/15 07:04:21;;;;;;;7.20;4.60;;;;;;;19.54;63.65;100908.97;30974811;28;97336;-72
2023/09/15 07:19:22;;;;;;;8.82;4.32;;;;;;;19.73;63.04;100912.66;30974151;28;96696;-75
2023/09/15 07:34:22;;;;;;;7.70;4.45;;;;;;;19.65;62.35;100918.28;30974193;28;96748;-66
2023/09/15 07:49:23;;;;;;;5.97;4.20;;;;;;;20.26;61.96;100914.31;30971360;28;96789;-66
2023/09/15 08:04:23;;;;;;;8.40;3.87;;;;;;;21.68;59.99;100922.13;30968214;28;97170;-73
2023/09/15 08:19:26;;;;;;;6.40;3.80;;;;;;;23.51;58.40;100923.59;30968177;28;97222;-65
2023/09/15 08:34:27;;;;;;;7.43;3.97;;;;;;;23.44;53.97;100934.59;30966641;28;96730;-74
2023/09/15 08:49:28;;;;;;;8.07;4.38;;;;;;;23.72;53.50;100937.63;30967388;28;97251;-67
2023/09/15 09:04:28;;;;;;;6.97;3.80;;;;;;;24.33;50.89;100927.13;30963454;28;96860;-72
2023/09/15 09:19:39;;;;;;;4.85;3.05;;;;;;;25.22;49.34;100913.88;30963897;28;97619;-70
2023/09/15 09:34:39;;;;;;;6.00;2.50;;;;;;;26.74;46.65;100917.06;30961170;28;97341;-71
2023/09/15 09:49:41;;;;;;;6.55;2.35;;;;;;;26.43;43.26;100909.38;30959330;28;96739;-68
2023/09/15 10:04:41;;;;;;;4.17;2.00;;;;;;;29.25;41.35;100898.94;30958938;28;96797;-70
2023/09/15 10:19:43;;;;;;;4.40;1.92;;;;;;;26.44;42.31;100893.81;30955899;28;97081;-67
2023/09/15 10:34:48;;;;;;;3.33;2.00;;;;;;;27.74;42.91;100880.72;30956437;28;96783;-66
2023/09/15 10:49:54;;;;;;;4.00;1.83;;;;;;;29.76;36.22;100879.53;30976379;28;97228;-73
2023/09/15 11:04:54;;;;;;;5.87;1.97;;;;;;;26.78;39.89;100872.53;30954972;28;97398;-73
2023/09/15 11:19:55;;;;;;;3.65;1.75;;;;;;;28.46;38.72;100866.34;30953883;28;96816;-71
2023/09/15 11:34:56;;;;;;;4.37;1.43;;;;;;;26.36;38.87;100848.69;30964900;28;97233;-72
2023/09/15 11:50:00;;;;;;;3.35;1.40;;;;;;;25.10;40.31;100845.84;30972619;28;97243;-69
2023/09/15 12:05:01;;;;;;;2.77;1.40;;;;;;;39.23;26.70;100831.13;30969050;28;97638;-73
2023/09/15 12:20:06;;;;;;;4.97;1.55;;;;;;;33.10;27.98;100824.25;30969937;28;97021;-66
2023/09/15 12:35:11;;;;;;;3.73;1.40;;;;;;;30.43;29.90;100818.63;30965769;28;97416;-72
2023/09/15 12:50:11;;;;;;;3.30;1.23;;;;;;;27.35;33.39;100799.84;30963237;28;97127;-65
2023/09/15 13:05:12;;;;;;;6.20;2.40;;;;;;;27.74;34.03;100775.91;30964021;28;97165;-66
2023/09/15 13:20:13;;;;;;;4.93;1.70;;;;;;;29.98;30.07;100763.78;30963955;28;97394;-65
2023/09/15 13:35:13;;;;;;;4.28;1.67;;;;;;;29.00;31.34;100756.06;30962369;28;97470;-70
2023/09/15 13:50:14;;;;;;;4.10;1.25;;;;;;;27.78;32.62;100725.81;30958752;28;96964;-68
2023/09/15 14:05:14;;;;;;;4.68;1.30;;;;;;;25.73;35.13;100720.06;30957543;28;97408;-65
2023/09/15 14:20:14;;;;;;;4.55;1.92;;;;;;;25.47;36.00;100712.44;30958292;28;97327;-64
2023/09/15 14:35:17;;;;;;;3.15;1.60;;;;;;;25.62;36.04;100702.78;30956034;28;97823;-73
2023/09/15 14:50:17;;;;;;;3.17;1.60;;;;;;;24.69;36.77;100684.50;30954468;28;97200;-73
2023/09/15 15:05:18;;;;;;;3.58;1.50;;;;;;;24.32;37.58;100688.63;30959382;28;97381;-70
2023/09/15 15:20:18;;;;;;;3.85;1.20;;;;;;;23.65;39.02;100680.19;30973235;28;97528;-69
2023/09/15 15:35:21;;;;;;;5.45;1.58;;;;;;;22.80;40.73;100670.97;30971642;28;97154;-66
2023/09/15 15:50:21;;;;;;;4.47;1.73;;;;;;;22.40;41.71;100664.38;30971880;28;97036;-75
2023/09/15 16:05:22;;;;;;;5.03;1.40;;;;;;;21.98;42.76;100659.91;30971940;28;97504;-65
2023/09/15 16:20:23;;;;;;;5.38;2.08;;;;;;;21.39;43.65;100667.88;30966769;28;97129;-68
2023/09/15 16:35:23;;;;;;;6.70;2.90;;;;;;;20.89;44.83;100671.66;30967352;28;96748;-70
2023/09/15 16:50:24;;;;;;;4.97;1.77;;;;;;;20.33;45.75;100669.97;30965909;28;96771;-66
2023/09/15 17:05:24;;;;;;;4.30;2.33;;;;;;;19.77;47.12;100677.88;30964262;28;96821;-65
2023/09/15 17:20:25;;;;;;;7.30;1.98;;;;;;;19.13;49.11;100685.94;30961083;28;97339;-66
2023/09/15 17:35:27;;;;;;;2.90;1.50;;;;;;;18.55;50.58;100701.06;30958744;28;97645;-63
2023/09/15 17:50:27;;;;;;;;;;;;;;;18.09;51.55;100702.75;30957583;28;97268;-74
2023/09/15 18:05:28;;;;;;;2.83;1.50;;;;;;;17.69;52.27;100701.88;30960806;28;96768;-65
2023/09/15 18:20:29;;;;;;;7.07;1.80;;;;;;;17.30;52.43;100706.94;30958749;28;96793;-66
2023/09/15 18:35:30;;;;;;;3.58;1.98;;;;;;;16.95;52.82;100716.94;30957615;28;96873;-65
2023/09/15 18:50:30;;;;;;;8.20;2.50;;;;;;;16.61;52.92;100713.19;30977524;28;96720;-64
2023/09/15 19:05:36;;;;;;;8.33;3.10;;;;;;;16.32;53.58;100709.69;30976576;28;96891;-68
2023/09/15 19:20:37;;;;;;;4.67;2.60;;;;;;;16.06;53.99;100727.25;30975053;28;97298;-74
2023/09/15 19:35:39;;;;;;;5.43;2.20;;;;;;;15.76;54.35;100727.41;30974039;28;97152;-69
2023/09/15 19:50:39;;;;;;;5.47;3.07;;;;;;;15.50;54.82;100712.66;30972461;28;97156;-71
2023/09/15 20:05:40;;;;;;;6.28;2.40;;;;;;;15.25;55.21;100717.53;30972518;28;97163;-65
2023/09/15 20:20:40;;;;;;;7.75;2.22;;;;;;;15.04;55.69;100712.94;30966987;28;97382;-64
2023/09/15 20:35:43;;;;;;;7.35;2.25;;;;;;;14.83;55.98;100711.84;30968075;28;97075;-63
2023/09/15 20:50:48;;;;;;;5.33;2.40;;;;;;;14.67;56.12;100698.63;30968301;28;96902;-64
2023/09/15 21:05:55;;;;;;;4.97;2.80;;;;;;;14.46;56.78;100696.63;30968156;28;97255;-63
2023/09/15 21:20:56;;;;;;;5.67;2.53;;;;;;;14.24;57.32;100685.78;30965939;28;97609;-64
2023/09/15 21:35:58;;;;;;;5.18;2.30;;;;;;;14.01;57.48;100691.16;30965396;28;96884;-64
2023/09/15 21:50:59;;;;;;;10.77;2.90;;;;;;;13.75;58.29;100699.59;30963310;28;97305;-68
2023/09/15 22:06:00;;;;;;;9.93;3.23;;;;;;;13.52;59.15;100695.06;30962805;28;96754;-64
2023/09/15 22:21:00;;;;;;;4.72;2.63;;;;;;;13.32;59.65;100691.97;30960588;28;96796;-64
2023/09/15 22:36:05;;;;;;;5.55;3.00;;;;;;;13.18;60.59;100683.69;30961493;28;97190;-66
2023/09/15 22:51:11;;;;;;;5.93;3.30;;;;;;;13.09;61.36;100684.72;30959928;28;97611;-64
2023/09/15 23:06:11;;;;;;;4.53;2.50;;;;;;;13.02;62.08;100684.59;30959425;28;97168;-64
2023/09/15 23:21:14;;;;;;;5.97;3.50;;;;;;;12.89;62.65;100681.66;30957773;28;96907;-69
2023/09/15 23:36:14;;;;;;;5.23;3.23;;;;;;;12.73;63.37;100684.41;30975879;28;96744;-68
2023/09/15 23:51:15;;;;;;;8.93;3.40;;;;;;;12.55;64.57;100672.09;30975335;28;97284;-65
